Flight Track Log - Related Links

Times and Time Zones

All times are in EDT time to prevent confusion due to time zone crossing. See the N8663P flight status page for this flight to view local times or setup timezone preferences in your user account.

Time Position Orientation Groundspeed Altitude Reporting Facility
EDT Latitude Longitude Course Direction KTS MPH feet Rate Location/Type
Sun 02:27:00 PM 44.3842 -73.4349 251° West  Level Estimated
Sun 02:28:00 PM 44.3712 -73.4828 249° West  Level FlightAware Approximate
Sun 02:29:00 PM 44.3583 -73.5306 249° West  Level FlightAware Approximate
Sun 02:29:29 PM 44.3611 -73.4303 249° West 103 119 6,200  Level Boston Center
Sun 02:30:00 PM 44.3453 -73.5784 249° West  Level FlightAware Approximate
Sun 02:30:27 PM 44.3506 -73.4650 247° West 103 119 6,900  Level Boston Center
Sun 02:31:00 PM 44.3306 -73.6252 248° West  Level Estimated
Sun 02:31:27 PM 44.3419 -73.4967 249° West 98 113 7,500  Level Boston Center
Sun 02:32:00 PM 44.3173 -73.6729 249° West  Level FlightAware Approximate
Sun 02:32:28 PM 44.3311 -73.5283 244° Southwest 98 113 8,000  Level Boston Center
Sun 02:33:00 PM 44.3041 -73.7205 249° West  Level FlightAware Approximate
Sun 02:33:28 PM 44.3203 -73.5658 248° West 98 113 8,100  Level Boston Center
Sun 02:34:00 PM 44.2908 -73.7681 249° West  Level FlightAware Approximate
Sun 02:34:28 PM 44.3094 -73.6122 252° West 111 128 8,100  Level Boston Center
Sun 02:35:00 PM 44.2775 -73.8157 249° West  Level FlightAware Approximate
Sun 02:35:28 PM 44.2986 -73.6525 249° West 123 142 8,100  Level Boston Center
Sun 02:36:27 PM 44.2858 -73.6986 249° West 129 148 8,100  Level Boston Center
Sun 02:37:27 PM 44.2747 -73.7419 250° West 129 148 8,100  Level Boston Center
Sun 02:38:28 PM 44.2639 -73.7853 251° West 129 148 8,100  Level Boston Center
Sun 02:39:28 PM 44.2508 -73.8311 248° West 129 148 8,100  Level Boston Center
Sun 02:40:28 PM 44.2397 -73.8803 253° West 129 148 8,100  Level Boston Center
Sun 02:41:29 PM 44.2267 -73.9233 247° West 129 148 8,100  Level Boston Center
Sun 02:42:27 PM 44.2178 -73.9694 255° West 129 148 8,100  Level Boston Center
Sun 02:43:27 PM 44.2047 -74.0128 247° West 129 148 8,100  Level Boston Center
Sun 02:44:27 PM 44.1917 -74.0586 248° West 129 148 8,100  Level Boston Center
Sun 02:45:28 PM 44.1783 -74.1047 248° West 129 148 8,100  Level Boston Center
Sun 02:46:29 PM 44.1694 -74.1506 255° West 129 148 8,100  Level Boston Center
Sun 02:47:29 PM 44.1522 -74.1936 241° Southwest 129 148 8,100  Level Boston Center
Sun 02:48:27 PM 44.1408 -74.2425 252° West 129 148 8,100  Level Boston Center
Sun 02:49:27 PM 44.1278 -74.2853 247° West 129 148 8,100  Level Boston Center
Sun 02:50:28 PM 44.1144 -74.3283 247° West 129 148 8,100  Level Boston Center
Sun 02:51:28 PM 44.1033 -74.3742 251° West 129 148 8,100  Level Boston Center
Sun 02:52:29 PM 44.0881 -74.4200 245° Southwest 129 148 8,100  Level Boston Center
Sun 02:53:29 PM 44.0747 -74.4658 248° West 129 148 8,100 51 Level Boston Center
Sun 02:54:27 PM 44.0633 -74.5117 251° West 129 148 8,200 51 Climbing Boston Center
Sun 02:55:27 PM 44.0522 -74.5575 251° West 129 148 8,200  Level Boston Center
Sun 02:56:28 PM 44.0389 -74.6033 248° West 129 148 8,200  Level Boston Center
Sun 02:57:28 PM 44.0256 -74.6489 248° West 129 148 8,200  Level Boston Center
Sun 02:58:29 PM 44.0142 -74.6975 252° West 129 148 8,200 -50 Level Boston Center
Sun 02:59:29 PM 43.9986 -74.7433 245° Southwest 129 148 8,100 -50 Descending Boston Center
Sun 03:00:30 PM 43.9831 -74.7858 243° Southwest 129 148 8,100  Level Boston Center
Sun 03:01:27 PM 43.9719 -74.8317 251° West 129 148 8,100  Level Boston Center
Sun 03:02:27 PM 43.9583 -74.8772 247° West 129 148 8,100  Level Boston Center
Sun 03:03:28 PM 43.9447 -74.9228 247° West 129 148 8,100 52 Level Boston Center
Sun 03:04:23 PM 43.9397 -74.9658 261° West 128 147 8,200  Climbing Boston Center
Sun 03:04:29 PM 43.9314 -74.9656 179° South 129 148 8,100 -94 Descending Boston Center
Sun 03:05:27 PM 43.9178 -75.0111 247° West 129 148 8,100 98 Level Boston Center
Sun 03:05:30 PM 43.9261 -75.0172 332° Northwest 128 147 8,200 98 Climbing Boston Center
Sun 03:06:28 PM 43.9044 -75.0567 233° Southwest 129 148 8,200  Level Boston Center
Sun 03:06:31 PM 43.9125 -75.0600 343° North 128 147 8,200  Level Boston Center
Sun 03:07:28 PM 43.8928 -75.1022 237° Southwest 129 148 8,200  Level Boston Center
Sun 03:07:31 PM 43.8992 -75.1025 358° North 127 146 8,200  Level Boston Center
Sun 03:08:29 PM 43.8794 -75.1478 239° Southwest 129 148 8,200  Level Boston Center
Sun 03:08:32 PM 43.8856 -75.1539 324° Northwest 128 147 8,200  Level Boston Center
Sun 03:09:32 PM 43.8697 -75.1992 244° Southwest 129 148 8,200  Level Boston Center
Sun 03:10:30 PM 43.8519 -75.2417 240° Southwest 129 148 8,200  Level Boston Center
Sun 03:10:36 PM 43.8519 -75.2444 270° West 130 150 8,200  Level Boston Center
Sun 03:11:27 PM 43.8364 -75.2869 243° Southwest 129 148 8,200  Level Boston Center
Sun 03:11:37 PM 43.8383 -75.2928 295° West 130 150 8,200  Level Boston Center
Sun 03:12:28 PM 43.8228 -75.3322 241° Southwest 129 148 8,200  Level Boston Center
Sun 03:12:37 PM 43.8247 -75.3353 311° West 127 146 8,200  Level Boston Center
Sun 03:13:28 PM 43.8092 -75.3747 241° Southwest 129 148 8,200  Level Boston Center
Sun 03:13:37 PM 43.8089 -75.3833 267° West 126 145 8,200  Level Boston Center
Sun 03:14:38 PM 43.7975 -75.4231 248° West 125 144 8,200  Level Boston Center
Sun 03:15:38 PM 43.7836 -75.4714 248° West 127 146 8,200  Level Boston Center
Sun 03:16:39 PM 43.7700 -75.5167 247° West 129 148 8,200  Level Boston Center
Sun 03:17:24 PM 43.7542 -75.5589 243° Southwest 130 150 8,200  Level Boston Center
Sun 03:17:28 PM 43.7564 -75.5561 42° Northeast 129 148 8,200  Level Boston Center
Sun 03:17:55 PM 43.7472 -75.5844 246° West 130 150 8,200  Level Boston Center
Sun 03:18:28 PM 43.7425 -75.6044 252° West 129 148 8,200  Level Boston Center
Sun 03:19:01 PM 43.7333 -75.6356 248° West 132 152 8,200  Level Boston Center
Sun 03:20:02 PM 43.7217 -75.6808 250° West 129 148 8,200  Level Boston Center
Sun 03:21:03 PM 43.7100 -75.7261 250° West 127 146 8,200  Level Boston Center
Sun 03:22:04 PM 43.6939 -75.7742 245° Southwest 126 145 8,200  Level Boston Center
Sun 03:23:11 PM 43.6800 -75.8222 248° West 126 145 8,200  Level Boston Center
Sun 03:24:11 PM 43.6661 -75.8675 247° West 126 145 8,200  Level Boston Center
Sun 03:25:06 PM 43.6547 -75.9069 248° West 126 145 8,200  Level Boston Center
Sun 03:26:07 PM 43.6408 -75.9519 247° West 125 144 8,200  Level Boston Center
Sun 03:27:07 PM 43.6289 -75.9972 250° West 126 145 8,200  Level Boston Center
Sun 03:28:08 PM 43.6131 -76.0394 243° Southwest 123 142 8,200  Level Boston Center
Sun 03:29:16 PM 43.5989 -76.0900 249° West 124 143 8,200  Level Boston Center
Sun 03:31:18 PM 43.5753 -76.1775 250° West 122 140 8,200  Level Boston Center
Sun 03:32:18 PM 43.5611 -76.2225 247° West 126 145 8,200  Level Boston Center
Sun 03:33:25 PM 43.5469 -76.2733 249° West 124 143 8,200  Level Boston Center
Sun 03:34:32 PM 43.5328 -76.3211 248° West 123 142 8,200  Level Boston Center
Sun 03:35:30 PM 43.5147 -76.3658 241° Southwest 124 143 8,200  Level Boston Center
Sun 03:36:46 PM 43.5006 -76.4164 249° West 124 143 8,200  Level Boston Center
Sun 03:37:34 PM 43.4886 -76.4556 247° West 126 145 8,200  Level Boston Center
Sun 03:38:35 PM 43.4747 -76.4947 244° Southwest 121 139 8,200  Level Boston Center
Sun 03:39:41 PM 43.4586 -76.5394 244° Southwest 121 139 8,200  Level Boston Center
Sun 03:40:36 PM 43.4467 -76.5789 247° West 122 140 8,200 -27 Level Boston Center
Sun 03:42:00 PM 43.4231 -76.6392 242° Southwest  Level FlightAware Approximate
Sun 03:43:22 PM 43.4081 -76.6919 242° Southwest 125 144 8,100  Level Cleveland Center
Sun 03:44:24 PM 43.3897 -76.7458 245° Southwest 128 147 8,100  Level Cleveland Center
Sun 03:45:26 PM 43.3772 -76.7908 249° West 127 146 8,100  Level Cleveland Center
Sun 03:46:13 PM 43.3681 -76.8269 251° West 125 144 8,100  Level Cleveland Center
Sun 03:46:28 PM 43.3636 -76.8336 227° Southwest 124 143 8,100  Level Cleveland Center
Sun 03:47:13 PM 43.3553 -76.8731 254° West 128 147 8,100  Level Cleveland Center
Sun 03:47:30 PM 43.3500 -76.8794 221° Southwest 127 146 8,100  Level Cleveland Center
Sun 03:48:20 PM 43.3383 -76.9211 249° West 129 148 8,100  Level Cleveland Center
Sun 03:48:32 PM 43.3367 -76.9250 239° Southwest 128 147 8,100  Level Cleveland Center
Sun 03:49:21 PM 43.3253 -76.9700 251° West 124 143 8,100  Level Cleveland Center
Sun 03:49:34 PM 43.3208 -76.9758 224° Southwest 122 140 8,100  Level Cleveland Center
Sun 03:50:15 PM 43.3139 -77.0078 253° West 120 138 8,100  Level Cleveland Center
Sun 03:50:37 PM 43.3083 -77.0206 239° Southwest 124 143 8,100  Level Cleveland Center
Sun 03:51:16 PM 43.2994 -77.0506 248° West 123 142 8,100  Level Cleveland Center
Sun 03:51:39 PM 43.2928 -77.0658 239° Southwest 124 143 8,100  Level Cleveland Center
Sun 03:52:16 PM 43.2847 -77.0961 250° West 126 145 8,100  Level Cleveland Center
Sun 03:52:41 PM 43.2797 -77.1094 243° Southwest 125 144 8,100  Level Cleveland Center
Sun 03:53:17 PM 43.2706 -77.1386 247° West 126 145 8,100  Level Cleveland Center
Sun 03:53:43 PM 43.2661 -77.1536 248° West 126 145 8,100  Level Cleveland Center
Sun 03:54:24 PM 43.2575 -77.1875 251° West 129 148 8,100  Level Cleveland Center
Sun 03:54:45 PM 43.2511 -77.1986 232° Southwest 129 148 8,100  Level Cleveland Center
Sun 03:55:24 PM 43.2406 -77.2325 247° West 129 148 8,100  Level Cleveland Center
Sun 03:55:47 PM 43.2358 -77.2433 239° Southwest 129 148 8,100  Level Cleveland Center
Sun 03:56:25 PM 43.2256 -77.2808 249° West 131 151 8,100  Level Cleveland Center
Sun 03:56:49 PM 43.2214 -77.2878 231° Southwest 129 148 8,100  Level Cleveland Center
Sun 03:57:26 PM 43.2106 -77.3264 249° West 130 150 8,100  Level Cleveland Center
Sun 03:57:51 PM 43.2039 -77.3419 240° Southwest 129 148 8,100  Level Cleveland Center
Sun 03:58:26 PM 43.1978 -77.3722 255° West 128 147 8,100  Level Cleveland Center
Sun 03:58:53 PM 43.1906 -77.3861 235° Southwest 127 146 8,100  Level Cleveland Center
Sun 03:59:27 PM 43.1833 -77.4150 251° West 127 146 8,100  Level Cleveland Center
Sun 03:59:55 PM 43.1764 -77.4311 239° Southwest 128 147 8,100  Level Cleveland Center
Sun 04:00:27 PM 43.1706 -77.4608 255° West 130 150 8,100  Level Cleveland Center
Sun 04:00:57 PM 43.1628 -77.4758 235° Southwest 128 147 8,100  Level Cleveland Center
Sun 04:01:28 PM 43.1558 -77.5061 253° West 128 147 8,100  Level Cleveland Center
Sun 04:01:59 PM 43.1478 -77.5208 233° Southwest 129 148 8,100  Level Cleveland Center
Sun 04:02:29 PM 43.1414 -77.5489 253° West 128 147 8,100  Level Cleveland Center
Sun 04:03:01 PM 43.1311 -77.5747 241° Southwest 129 148 8,100  Level Cleveland Center
Sun 04:03:29 PM 43.1264 -77.5942 252° West 128 147 8,100  Level Cleveland Center
Sun 04:04:03 PM 43.1169 -77.6186 242° Southwest 127 146 8,100  Level Cleveland Center
Sun 04:04:24 PM 43.1142 -77.6344 256° West 126 145 8,100  Level Cleveland Center
Sun 04:05:06 PM 43.1031 -77.6622 241° Southwest 126 145 8,100  Level Cleveland Center
Sun 04:05:24 PM 43.0989 -77.6825 254° West 126 145 8,100  Level Cleveland Center
Sun 04:06:08 PM 43.0892 -77.7067 241° Southwest 126 145 8,100  Level Cleveland Center
Sun 04:06:25 PM 43.0844 -77.7250 251° West 128 147 8,100  Level Cleveland Center
Sun 04:07:10 PM 43.0719 -77.7500 236° Southwest 129 148 8,100  Level Cleveland Center
Sun 04:07:26 PM 43.0675 -77.7697 253° West 128 147 8,100  Level Cleveland Center
Sun 04:08:12 PM 43.0569 -77.7928 238° Southwest 127 146 8,100  Level Cleveland Center
Sun 04:08:26 PM 43.0528 -77.8119 253° West 125 144 8,100  Level Cleveland Center
Sun 04:09:14 PM 43.0392 -77.8431 239° Southwest 124 143 8,100  Level Cleveland Center
Sun 04:10:16 PM 43.0228 -77.8853 242° Southwest 124 143 8,100  Level Cleveland Center
Sun 04:11:18 PM 43.0047 -77.9275 240° Southwest 128 147 8,100  Level Cleveland Center
Sun 04:12:20 PM 42.9886 -77.9708 243° Southwest 129 148 8,100  Level Cleveland Center
Sun 04:13:22 PM 42.9717 -78.0142 242° Southwest 130 150 8,100  Level Cleveland Center
Sun 04:14:24 PM 42.9508 -78.0661 241° Southwest 132 152 8,100  Level Cleveland Center
Sun 04:15:26 PM 42.9328 -78.1106 241° Southwest 129 148 8,100  Level Cleveland Center
Sun 04:16:28 PM 42.9131 -78.1547 239° Southwest 129 148 8,100  Level Cleveland Center
Sun 04:17:30 PM 42.8967 -78.2003 244° Southwest 129 148 8,100  Level Cleveland Center
Sun 04:18:32 PM 42.8794 -78.2442 242° Southwest 127 146 8,100  Level Cleveland Center
Sun 04:19:35 PM 42.8642 -78.2842 242° Southwest 125 144 8,100  Level Cleveland Center
Sun 04:20:37 PM 42.8469 -78.3258 241° Southwest 122 140 8,100  Level Cleveland Center
Sun 04:21:39 PM 42.8297 -78.3717 243° Southwest 129 148 8,100  Level Cleveland Center
Sun 04:22:41 PM 42.8136 -78.4161 244° Southwest 128 147 8,100  Level Cleveland Center
Sun 04:23:43 PM 42.7964 -78.4603 242° Southwest 129 148 8,100  Level Cleveland Center
Sun 04:24:45 PM 42.7778 -78.5072 242° Southwest 134 154 8,100  Level Cleveland Center
Sun 04:25:47 PM 42.7600 -78.5519 242° Southwest 130 150 8,100  Level Cleveland Center
Sun 04:26:49 PM 42.7431 -78.5936 241° Southwest 133 153 8,100  Level Cleveland Center
Sun 04:27:51 PM 42.7247 -78.6386 241° Southwest 133 153 8,100  Level Cleveland Center
Sun 04:28:53 PM 42.7061 -78.6842 241° Southwest 132 152 8,100  Level Cleveland Center
Sun 04:29:55 PM 42.6878 -78.7286 241° Southwest 131 151 8,100  Level Cleveland Center
Sun 04:30:57 PM 42.6678 -78.7739 239° Southwest 132 152 8,100  Level Cleveland Center
Sun 04:31:59 PM 42.6503 -78.8150 240° Southwest 125 144 8,100  Level Cleveland Center
Sun 04:33:02 PM 42.6328 -78.8572 241° Southwest 121 139 8,100  Level Cleveland Center
Sun 04:34:04 PM 42.6122 -78.9000 237° Southwest 128 147 8,100  Level Cleveland Center
Sun 04:35:06 PM 42.5944 -78.9397 239° Southwest 130 150 8,100  Level Cleveland Center
Sun 04:36:08 PM 42.5758 -78.9814 239° Southwest 126 145 8,100  Level Cleveland Center
Sun 04:37:10 PM 42.5561 -79.0247 238° Southwest 127 146 8,100  Level Cleveland Center
Sun 04:38:12 PM 42.5358 -79.0675 237° Southwest 131 151 8,100  Level Cleveland Center
Sun 04:39:14 PM 42.5183 -79.1083 240° Southwest 124 143 8,100  Level Cleveland Center
Sun 04:40:16 PM 42.5003 -79.1503 240° Southwest 123 142 8,100  Level Cleveland Center
Sun 04:41:18 PM 42.4814 -79.1950 240° Southwest 132 152 8,100  Level Cleveland Center
Sun 04:42:20 PM 42.4653 -79.2347 241° Southwest 129 148 8,100 48 Level Cleveland Center
Sun 04:43:22 PM 42.4478 -79.2806 243° Southwest 132 152 8,200 48 Climbing Cleveland Center
Sun 04:44:24 PM 42.4300 -79.3233 241° Southwest 129 148 8,200  Level Cleveland Center
Sun 04:45:26 PM 42.4122 -79.3675 241° Southwest 131 151 8,200  Level Cleveland Center
Sun 04:46:29 PM 42.3939 -79.4094 239° Southwest 125 144 8,200  Level Cleveland Center
Sun 04:47:31 PM 42.3758 -79.4542 241° Southwest 131 151 8,200  Level Cleveland Center
Sun 04:48:33 PM 42.3561 -79.4969 238° Southwest 129 148 8,200  Level Cleveland Center
Sun 04:49:35 PM 42.3386 -79.5372 240° Southwest 129 148 8,200  Level Cleveland Center
Sun 04:50:37 PM 42.3200 -79.5811 240° Southwest 129 148 8,200  Level Cleveland Center
Sun 04:51:39 PM 42.3022 -79.6253 241° Southwest 129 148 8,200  Level Cleveland Center
Sun 04:52:41 PM 42.2836 -79.6686 240° Southwest 128 147 8,200  Level Cleveland Center
Sun 04:53:43 PM 42.2650 -79.7125 240° Southwest 130 150 8,200  Level Cleveland Center
Sun 04:54:45 PM 42.2475 -79.7592 243° Southwest 134 154 8,200  Level Cleveland Center
Sun 04:55:47 PM 42.2286 -79.8017 239° Southwest 128 147 8,200  Level Cleveland Center
Sun 04:56:50 PM 42.2108 -79.8414 239° Southwest 128 147 8,200 -48 Level Cleveland Center
Sun 04:57:52 PM 42.1903 -79.8869 239° Southwest 135 155 8,100 -194 Descending Cleveland Center
Sun 04:58:54 PM 42.1694 -79.9372 241° Southwest 145 167 7,800 -387 Descending Cleveland Center
Sun 04:59:56 PM 42.1486 -79.9864 240° Southwest 148 170 7,300 -532 Descending Cleveland Center
Sun 05:00:58 PM 42.1267 -80.0394 241° Southwest 152 175 6,700 -532 Descending Cleveland Center
Sun 05:02:00 PM 42.1028 -80.0908 238° Southwest 156 180 6,200 -290 Descending Cleveland Center
Sun 05:03:02 PM 42.0822 -80.1414 241° Southwest 149 171 6,100 -48 Descending Cleveland Center
Sun 05:04:04 PM 42.0608 -80.1856 237° Southwest 135 155 6,100  Level Cleveland Center
Sun 05:05:06 PM 42.0417 -80.2306 240° Southwest 141 162 6,100  Level Cleveland Center
Sun 05:06:08 PM 42.0211 -80.2764 239° Southwest 135 155 6,100  Level Cleveland Center
Sun 05:07:10 PM 41.9986 -80.3214 236° Southwest 138 159 6,100 -194 Level Cleveland Center
Sun 05:08:12 PM 41.9742 -80.3706 236° Southwest 148 170 5,700 -384 Descending Cleveland Center
Sun 05:09:15 PM 41.9458 -80.4178 231° Southwest 155 178 5,300 -336 Descending Cleveland Center
Sun 05:10:17 PM 41.9219 -80.4553 229° Southwest 149 171 5,000 -435 Descending Cleveland Center
Sun 05:11:19 PM 41.8961 -80.4992 232° Southwest 148 170 4,400 -677 Descending Cleveland Center
Sun 05:12:21 PM 41.8631 -80.5503 229° Southwest 151 174 3,600 -677 Descending Cleveland Center
Sun 05:13:23 PM 41.8297 -80.5825 216° Southwest 150 173 3,000 -435 Descending Cleveland Center
Sun 05:14:25 PM 41.7953 -80.5925 192° South 153 176 2,700 -290 Descending Cleveland Center

Login

Don't have an account? Register now (free) for customized features, flight alerts, and more!